Terminal Aerodrome Forecast
Issued by NWS

Home | Current Version | Previous Version | Graphics & Text | Print | Product List | Glossary On
Versions: 1 2 3 4 5 6 7 8 9 10 11 12 13 14 15
244
FTUS45 KGGW 060437 AAA
TAFSDY
TAF AMD
KSDY 060437Z 0605/0624 31025G35KT 2SM -SN BLSN BKN022
     FM060700 30020G30KT 4SM -SN BLSN BKN022
     FM060900 30015KT P6SM BKN020=

USA.gov is the U.S. government's official web portal to all federal, state and local government web resources and services.